Time;durP1;ratioP1;P1;durP2;ratioP2;P2;SDS_P1;SDS_P2;PMS_P1;PMS_P2;Temp;Humidity;BMP_temperature;BMP_pressure;BME280_temperature;BME280_humidity;BME280_pressure;Samples;Min_cycle;Max_cycle;Signal;HPM_P1;HPM_P2
2022/02/20 00:01:22;;;;;;;23.85;7.60;;;;;;;2.19;53.94;99990.92;1960467;90;27769;-67
2022/02/20 00:04:24;;;;;;;24.63;8.88;;;;;;;2.23;54.00;99984.69;1947706;89;30066;-65
2022/02/20 00:07:27;;;;;;;21.27;8.00;;;;;;;2.30;54.10;99992.50;1983434;89;31076;-67
2022/02/20 00:10:37;;;;;;;18.62;7.70;;;;;;;2.33;54.21;99984.48;1957526;90;32997;-67
2022/02/20 00:13:45;;;;;;;16.85;7.25;;;;;;;2.38;54.25;99982.19;1957318;90;27936;-66
2022/02/20 00:16:52;;;;;;;11.73;4.80;;;;;;;2.42;54.29;99975.91;1981820;89;27806;-68
2022/02/20 00:19:55;;;;;;;20.70;7.62;;;;;;;2.47;54.33;99978.91;1981392;89;28721;-69
2022/02/20 00:23:01;;;;;;;20.37;7.65;;;;;;;2.51;54.25;99974.84;2000414;88;31047;-68
2022/02/20 00:26:08;;;;;;;18.70;7.80;;;;;;;2.55;54.40;99970.37;2000243;88;33035;-66
2022/02/20 00:29:13;;;;;;;19.25;7.75;;;;;;;2.59;54.38;99966.73;1998112;88;29570;-67
2022/02/20 00:32:18;;;;;;;17.87;7.35;;;;;;;2.63;54.43;99960.95;1997262;88;28003;-65
2022/02/20 00:35:21;;;;;;;18.37;6.97;;;;;;;2.65;54.50;99963.97;2000654;88;28660;-66
2022/02/20 00:38:23;;;;;;;14.87;6.53;;;;;;;2.69;54.54;99957.70;2000460;88;31042;-65
2022/02/20 00:41:25;;;;;;;18.23;6.78;;;;;;;2.72;54.54;99956.76;2000412;88;33047;-66
2022/02/20 00:44:31;;;;;;;17.45;7.47;;;;;;;2.76;54.59;99958.88;1997790;88;29319;-66
2022/02/20 00:47:35;;;;;;;15.53;6.37;;;;;;;2.79;54.54;99956.16;1997329;88;28048;-65
2022/02/20 00:50:41;;;;;;;18.23;6.33;;;;;;;2.80;54.65;99946.89;1997966;88;28627;-65
2022/02/20 00:53:45;;;;;;;17.57;6.45;;;;;;;2.82;54.61;99937.58;1997680;88;31028;-66
2022/02/20 00:56:51;;;;;;;15.10;6.03;;;;;;;2.83;54.64;99932.70;1997217;88;33058;-66
2022/02/20 01:00:00;;;;;;;16.00;5.25;;;;;;;2.85;54.65;99925.61;1997618;88;29329;-66
2022/02/20 01:03:06;;;;;;;16.07;6.28;;;;;;;2.86;54.74;99916.30;1997725;88;27948;-66
2022/02/20 01:06:16;;;;;;;14.83;5.60;;;;;;;2.90;54.66;99907.83;1997897;88;28659;-66
2022/02/20 01:09:22;;;;;;;13.48;5.15;;;;;;;2.93;54.72;99906.91;1993088;88;32654;-65
2022/02/20 01:12:27;;;;;;;10.53;4.50;;;;;;;2.97;54.70;99894.02;1997359;88;33030;-67
2022/02/20 01:15:32;;;;;;;12.70;4.75;;;;;;;3.00;54.60;99890.83;1966899;90;30527;-67
2022/02/20 01:18:38;;;;;;;11.18;4.10;;;;;;;3.03;54.62;99877.97;1967095;90;33978;-67
2022/02/20 01:21:42;;;;;;;9.88;4.00;;;;;;;3.07;54.65;99878.31;1934422;91;28634;-66
2022/02/20 01:24:47;;;;;;;13.48;3.83;;;;;;;3.10;54.61;99870.30;1934942;91;31090;-67
2022/02/20 01:27:57;;;;;;;9.35;3.80;;;;;;;3.14;54.62;99869.75;1947073;90;35645;-67
2022/02/20 01:31:02;;;;;;;10.18;4.40;;;;;;;3.19;54.57;99878.45;1934632;91;31014;-66
2022/02/20 01:34:07;;;;;;;9.20;3.80;;;;;;;3.23;54.51;99873.47;1934575;91;28055;-65
2022/02/20 01:37:18;;;;;;;11.03;3.40;;;;;;;3.27;54.51;99863.22;1967439;90;28731;-64
2022/02/20 01:40:26;;;;;;;13.75;4.30;;;;;;;3.31;54.48;99852.12;1953916;90;31120;-64
2022/02/20 01:43:27;;;;;;;11.75;3.95;;;;;;;3.35;54.47;99835.22;1964415;90;33161;-65
2022/02/20 01:46:32;;;;;;;9.63;2.92;;;;;;;3.39;54.42;99830.73;1957297;90;29322;-66
2022/02/20 01:49:44;;;;;;;12.15;3.37;;;;;;;3.43;54.33;99823.98;2017177;87;27939;-65
2022/02/20 01:52:59;;;;;;;8.88;3.30;;;;;;;3.47;54.30;99824.31;2017924;87;28894;-66
2022/02/20 01:56:05;;;;;;;12.15;3.17;;;;;;;3.52;54.23;99819.31;2016732;88;27980;-66
2022/02/20 01:59:10;;;;;;;11.55;3.47;;;;;;;3.55;54.17;99826.73;2016803;88;32982;-64
2022/02/20 02:02:13;;;;;;;12.18;3.83;;;;;;;3.59;54.24;99817.77;2019750;88;29333;-64
2022/02/20 02:05:21;;;;;;;9.38;3.45;;;;;;;3.63;54.16;99814.60;2019673;88;28008;-64
2022/02/20 02:08:24;;;;;;;11.18;3.87;;;;;;;3.64;54.17;99813.22;2019512;88;28628;-65
2022/02/20 02:11:27;;;;;;;11.80;3.22;;;;;;;3.67;54.07;99806.95;2019248;88;31069;-63
2022/02/20 02:14:30;;;;;;;13.18;3.95;;;;;;;3.70;54.07;99794.09;2019326;88;33574;-65
2022/02/20 02:17:33;;;;;;;9.18;3.85;;;;;;;3.72;54.11;99793.59;2019432;88;29350;-64
2022/02/20 02:20:35;;;;;;;11.00;3.87;;;;;;;3.73;54.03;99774.11;2019532;88;27619;-64
2022/02/20 02:23:46;;;;;;;13.90;4.00;;;;;;;3.75;54.01;99780.23;2015592;88;28653;-64
2022/02/20 02:26:55;;;;;;;11.30;4.35;;;;;;;3.76;54.04;99770.94;2016174;88;27921;-64
2022/02/20 02:29:57;;;;;;;8.03;3.17;;;;;;;3.79;53.97;99773.50;2019610;88;32971;-63
2022/02/20 02:33:09;;;;;;;7.97;2.92;;;;;;;3.82;53.92;99759.28;2015597;88;29795;-63
2022/02/20 02:36:18;;;;;;;6.80;3.30;;;;;;;3.84;53.80;99750.83;2015593;88;28061;-66
2022/02/20 02:39:20;;;;;;;5.97;2.47;;;;;;;3.89;53.84;99756.83;2019755;87;28635;-63
2022/02/20 02:42:24;;;;;;;9.68;3.83;;;;;;;3.91;53.75;99749.70;2015936;87;31166;-68
2022/02/20 02:45:27;;;;;;;11.03;3.07;;;;;;;3.92;53.68;99743.49;2019835;88;32977;-66
2022/02/20 02:48:30;;;;;;;11.88;3.30;;;;;;;3.94;53.68;99735.52;2019636;88;29191;-66
2022/02/20 02:51:33;;;;;;;11.30;2.90;;;;;;;3.94;53.69;99729.73;2019445;88;27925;-63
2022/02/20 02:54:47;;;;;;;9.70;2.72;;;;;;;3.96;53.57;99728.39;1995648;88;28049;-64
2022/02/20 02:57:54;;;;;;;10.23;3.27;;;;;;;3.99;53.57;99720.78;2015377;88;31227;-66
2022/02/20 03:00:56;;;;;;;7.78;2.80;;;;;;;3.99;53.47;99707.06;2020160;88;33003;-63
2022/02/20 03:04:06;;;;;;;;;;;;;;;4.02;53.46;99702.14;2019113;88;29759;-68
2022/02/20 03:07:09;;;;;;;9.18;3.10;;;;;;;4.03;53.49;99699.42;2020006;88;27892;-66
2022/02/20 03:10:13;;;;;;;7.85;3.20;;;;;;;4.04;53.44;99685.73;2019819;88;29312;-66
2022/02/20 03:13:23;;;;;;;9.65;3.42;;;;;;;4.05;53.28;99676.39;2016526;88;31035;-66
2022/02/20 03:16:38;;;;;;;6.17;2.90;;;;;;;4.09;53.28;99670.52;2016059;88;33391;-66
2022/02/20 03:19:45;;;;;;;7.03;2.87;;;;;;;4.09;53.26;99669.20;2016364;87;29789;-66
2022/02/20 03:22:50;;;;;;;7.00;2.50;;;;;;;4.11;53.11;99656.77;2016720;88;27747;-66
2022/02/20 03:25:54;;;;;;;9.60;2.98;;;;;;;4.13;53.02;99652.28;2007485;88;28661;-67
2022/02/20 03:28:57;;;;;;;8.48;2.87;;;;;;;4.15;52.96;99658.41;2013903;87;32340;-65
2022/02/20 03:31:59;;;;;;;7.95;3.40;;;;;;;4.18;52.91;99649.47;2020619;87;33019;-66
2022/02/20 03:35:02;;;;;;;7.10;2.85;;;;;;;4.20;52.97;99660.89;2019256;88;29386;-65
2022/02/20 03:38:05;;;;;;;9.95;2.65;;;;;;;4.23;52.91;99652.84;2010290;88;27560;-65
2022/02/20 03:41:08;;;;;;;10.58;2.90;;;;;;;4.26;52.65;99644.31;2019596;88;28663;-65
2022/02/20 03:44:10;;;;;;;7.28;3.25;;;;;;;4.29;52.56;99641.16;2010115;88;30885;-65
2022/02/20 03:47:12;;;;;;;10.08;3.15;;;;;;;4.32;52.48;99641.91;2019624;88;32954;-63
2022/02/20 03:50:15;;;;;;;8.33;2.92;;;;;;;4.35;52.28;99636.98;2019653;88;29337;-64
2022/02/20 03:53:25;;;;;;;7.87;2.47;;;;;;;4.38;52.12;99636.41;2016443;88;27797;-64
2022/02/20 03:56:33;;;;;;;7.00;2.20;;;;;;;4.41;52.08;99638.06;2016195;88;29175;-64
2022/02/20 03:59:38;;;;;;;7.95;2.60;;;;;;;4.45;52.05;99640.17;2016685;88;31043;-64
2022/02/20 04:02:43;;;;;;;6.10;2.52;;;;;;;4.48;51.88;99641.37;2016694;88;32988;-63
2022/02/20 04:05:51;;;;;;;6.08;2.33;;;;;;;4.52;51.83;99636.37;2016795;88;29299;-64
2022/02/20 04:08:59;;;;;;;8.88;2.77;;;;;;;4.56;51.77;99640.18;1996286;88;27927;-63
2022/02/20 04:12:08;;;;;;;9.38;2.17;;;;;;;4.63;51.77;99632.02;2016741;88;28655;-64
2022/02/20 04:15:13;;;;;;;5.33;2.30;;;;;;;4.67;51.67;99630.98;2016644;88;31028;-63
2022/02/20 04:18:17;;;;;;;8.38;2.60;;;;;;;4.70;51.75;99625.58;2016737;88;33091;-64
2022/02/20 04:21:23;;;;;;;8.33;2.33;;;;;;;4.74;51.79;99632.95;2017672;87;29384;-62
2022/02/20 04:24:32;;;;;;;6.25;2.95;;;;;;;4.75;52.54;99630.23;2016616;88;27765;-62
2022/02/20 04:27:37;;;;;;;7.42;2.00;;;;;;;4.77;52.92;99631.52;2017130;87;28657;-64
2022/02/20 04:30:41;;;;;;;;;;;;;;;4.75;53.75;99638.19;2019365;88;31057;-63
2022/02/20 04:33:50;;;;;;;10.03;2.50;;;;;;;4.68;55.88;99638.88;2016889;88;32996;-65
2022/02/20 04:36:54;;;;;;;4.35;2.02;;;;;;;4.58;56.15;99641.91;2015422;88;29339;-65
2022/02/20 04:40:00;;;;;;;7.85;1.92;;;;;;;4.46;56.76;99644.09;2016526;88;27997;-66
2022/02/20 04:43:09;;;;;;;6.72;2.52;;;;;;;4.36;57.45;99638.71;2016915;88;28814;-66
2022/02/20 04:46:15;;;;;;;6.15;2.17;;;;;;;4.27;58.26;99634.59;2019835;88;31038;-65
2022/02/20 04:49:21;;;;;;;7.03;2.77;;;;;;;4.15;58.60;99625.71;2016653;88;33020;-66
2022/02/20 04:52:29;;;;;;;8.05;1.92;;;;;;;4.05;59.22;99623.38;2017185;87;29323;-66
2022/02/20 04:55:34;;;;;;;9.45;2.52;;;;;;;3.91;59.79;99617.21;2016008;88;27735;-65
2022/02/20 04:58:38;;;;;;;5.53;2.50;;;;;;;3.81;59.96;99619.77;1996637;88;28754;-65
2022/02/20 05:01:46;;;;;;;5.53;2.30;;;;;;;3.72;60.37;99606.37;2017092;88;31028;-66
2022/02/20 05:05:02;;;;;;;6.37;2.92;;;;;;;3.64;60.69;99603.12;2016567;88;34254;-66
2022/02/20 05:08:17;;;;;;;8.65;3.22;;;;;;;3.53;61.17;99598.60;2016638;88;29375;-64
2022/02/20 05:11:28;;;;;;;6.85;2.50;;;;;;;3.46;61.49;99593.96;2016703;88;27937;-65
2022/02/20 05:14:37;;;;;;;8.90;2.42;;;;;;;3.39;61.71;99585.34;2017014;88;28656;-64
2022/02/20 05:17:42;;;;;;;10.23;3.00;;;;;;;3.36;61.92;99583.27;2016984;88;31027;-66
2022/02/20 05:20:44;;;;;;;7.12;2.92;;;;;;;3.32;62.33;99580.70;2019916;88;32981;-64
2022/02/20 05:23:55;;;;;;;8.95;3.77;;;;;;;3.27;62.37;99575.16;2016296;88;29419;-66
2022/02/20 05:27:00;;;;;;;7.83;2.90;;;;;;;3.25;62.47;99577.83;2015872;88;28108;-66
2022/02/20 05:30:03;;;;;;;7.03;2.58;;;;;;;3.25;62.84;99569.89;2019528;88;28655;-64
2022/02/20 05:33:08;;;;;;;5.17;2.20;;;;;;;3.23;63.06;99565.09;2016409;88;31066;-67
2022/02/20 05:36:11;;;;;;;9.55;2.40;;;;;;;3.23;63.12;99568.22;2019704;88;32952;-64
2022/02/20 05:39:13;;;;;;;6.50;2.20;;;;;;;3.21;63.65;99562.98;2019860;88;29342;-64
2022/02/20 05:42:16;;;;;;;6.28;2.67;;;;;;;3.18;63.77;99558.63;2019872;87;27613;-64
2022/02/20 05:45:18;;;;;;;5.92;2.83;;;;;;;3.16;64.04;99554.31;2019756;88;28671;-64
2022/02/20 05:48:21;;;;;;;8.73;2.87;;;;;;;3.13;64.14;99553.96;2019859;88;31060;-64
2022/02/20 05:51:23;;;;;;;6.65;2.58;;;;;;;3.15;64.37;99553.90;2010348;88;33073;-64
2022/02/20 05:54:25;;;;;;;4.37;2.75;;;;;;;3.17;64.54;99550.75;2019830;88;29346;-64
2022/02/20 05:57:27;;;;;;;5.78;3.02;;;;;;;3.17;64.58;99546.78;2019668;88;27694;-63
2022/02/20 06:00:33;;;;;;;5.75;2.60;;;;;;;3.19;64.93;99543.16;2019722;88;28667;-64
2022/02/20 06:03:39;;;;;;;;;;;;;;;3.19;64.99;99537.88;2018577;88;31145;-65
2022/02/20 06:06:44;;;;;;;16.73;8.38;;;;;;;3.21;65.29;99535.19;2016158;88;33112;-64
2022/02/20 06:09:49;;;;;;;19.45;11.45;;;;;;;3.23;65.36;99527.19;2016085;88;29353;-64
2022/02/20 06:12:53;;;;;;;9.80;5.58;;;;;;;3.23;65.41;99528.04;1995846;88;27836;-64
2022/02/20 06:16:01;;;;;;;18.25;8.08;;;;;;;3.25;65.60;99527.54;2016353;88;28673;-64
2022/02/20 06:19:05;;;;;;;31.57;10.13;;;;;;;3.27;65.69;99523.54;2016311;88;31025;-64
2022/02/20 06:22:09;;;;;;;10.08;4.65;;;;;;;3.29;65.86;99527.86;2016404;88;32961;-64
2022/02/20 06:25:14;;;;;;;4.67;2.47;;;;;;;3.31;66.12;99527.83;2016028;87;29335;-64
2022/02/20 06:28:20;;;;;;;4.40;1.87;;;;;;;3.32;66.12;99518.94;2016243;88;27963;-64
2022/02/20 06:31:29;;;;;;;3.92;2.50;;;;;;;3.34;66.05;99519.31;2016133;88;29299;-64
2022/02/20 06:34:34;;;;;;;6.85;2.05;;;;;;;3.36;66.28;99527.67;2015903;88;31059;-64
2022/02/20 06:37:38;;;;;;;6.65;2.98;;;;;;;3.38;66.21;99523.20;2019135;88;32961;-64
2022/02/20 06:40:45;;;;;;;3.95;2.22;;;;;;;3.40;66.51;99520.89;2015606;88;28065;-64
2022/02/20 06:43:54;;;;;;;8.87;2.40;;;;;;;3.43;66.49;99522.13;2016464;88;27988;-64
2022/02/20 06:46:59;;;;;;;2.60;1.90;;;;;;;3.48;66.59;99514.02;2016541;88;28676;-64
2022/02/20 06:50:02;;;;;;;5.92;2.20;;;;;;;3.49;66.83;99509.98;2019719;88;31027;-63
2022/02/20 06:53:05;;;;;;;5.22;2.42;;;;;;;3.54;66.81;99512.50;2019103;87;32966;-64
2022/02/20 06:56:12;;;;;;;4.15;1.65;;;;;;;3.55;67.12;99506.30;2015842;88;29325;-65
2022/02/20 06:59:18;;;;;;;4.12;2.45;;;;;;;3.56;67.06;99517.27;2016004;88;27923;-64
2022/02/20 07:02:22;;;;;;;2.77;1.17;;;;;;;3.58;67.02;99506.64;2016093;88;29745;-64
2022/02/20 07:05:29;;;;;;;1.82;1.50;;;;;;;3.61;67.19;99514.02;2016158;88;31028;-64
2022/02/20 07:08:34;;;;;;;2.12;1.62;;;;;;;3.66;67.28;99504.58;2015598;88;32975;-63
2022/02/20 07:11:43;;;;;;;3.58;1.75;;;;;;;3.73;67.44;99506.55;2015909;88;29354;-64
2022/02/20 07:14:53;;;;;;;1.45;1.10;;;;;;;3.75;67.51;99501.62;1997049;88;27865;-64
2022/02/20 07:18:00;;;;;;;1.85;1.40;;;;;;;3.83;67.51;99507.11;1962747;90;29119;-65
2022/02/20 07:21:02;;;;;;;1.80;1.30;;;;;;;3.93;67.65;99501.44;1938201;90;31060;-64
2022/02/20 07:24:06;;;;;;;3.83;1.45;;;;;;;4.01;67.88;99493.21;2017427;88;32939;-65
2022/02/20 07:27:09;;;;;;;1.67;1.45;;;;;;;4.08;67.71;99500.48;1967174;90;29449;-65
2022/02/20 07:30:14;;;;;;;2.37;1.45;;;;;;;4.17;67.67;99505.91;1959529;90;27747;-64
2022/02/20 07:33:16;;;;;;;3.15;1.50;;;;;;;4.23;67.73;99507.88;2016001;87;29824;-65
2022/02/20 07:36:19;;;;;;;2.45;1.85;;;;;;;4.30;67.59;99501.03;1999781;88;31170;-65
2022/02/20 07:39:21;;;;;;;3.52;1.60;;;;;;;4.39;67.64;99511.29;1967078;90;32913;-65
2022/02/20 07:42:29;;;;;;;4.87;2.55;;;;;;;4.46;67.60;99506.66;1960120;90;29329;-66
2022/02/20 07:45:37;;;;;;;7.65;3.62;;;;;;;4.51;67.62;99505.55;1956564;90;28066;-67
2022/02/20 07:48:42;;;;;;;6.03;2.25;;;;;;;4.58;67.57;99508.84;2013349;88;28655;-67
2022/02/20 07:51:47;;;;;;;3.05;1.98;;;;;;;4.64;67.50;99498.45;1963623;90;31045;-65
2022/02/20 07:54:51;;;;;;;2.92;2.00;;;;;;;4.71;67.51;99496.83;1963820;90;32972;-66
2022/02/20 07:57:55;;;;;;;2.33;1.72;;;;;;;4.79;67.55;99512.45;1957835;90;29338;-65
2022/02/20 08:01:00;;;;;;;5.58;2.62;;;;;;;4.85;67.42;99516.20;2014734;87;33846;-65
2022/02/20 08:04:08;;;;;;;5.40;2.52;;;;;;;4.90;67.33;99505.84;2014640;87;28617;-66
2022/02/20 08:07:14;;;;;;;5.90;3.45;;;;;;;4.92;67.39;99510.64;2014491;88;31011;-64
2022/02/20 08:10:24;;;;;;;7.80;3.55;;;;;;;4.95;67.48;99514.06;2014311;87;32962;-69
2022/02/20 08:13:36;;;;;;;5.72;2.60;;;;;;;5.02;67.60;99520.84;2013980;87;27874;-64
2022/02/20 08:16:45;;;;;;;3.30;1.87;;;;;;;5.12;67.67;99529.30;2014135;87;27959;-65
2022/02/20 08:19:54;;;;;;;6.22;1.82;;;;;;;5.21;67.86;99525.90;2014411;88;28856;-64
2022/02/20 08:22:58;;;;;;;3.10;1.45;;;;;;;5.29;67.69;99532.63;2014439;88;31054;-66
2022/02/20 08:26:08;;;;;;;1.67;1.20;;;;;;;5.37;67.64;99534.09;2016488;87;32952;-64
2022/02/20 08:29:13;;;;;;;2.25;1.30;;;;;;;5.43;67.63;99539.17;2016785;88;29381;-64
2022/02/20 08:32:22;;;;;;;3.65;1.52;;;;;;;5.52;67.79;99542.77;2016948;88;27693;-64
2022/02/20 08:35:32;;;;;;;1.80;1.30;;;;;;;5.58;67.65;99551.83;2016786;88;28886;-66
2022/02/20 08:38:38;;;;;;;3.17;1.50;;;;;;;5.60;67.56;99553.95;2017057;88;31061;-66
2022/02/20 08:41:43;;;;;;;2.77;1.80;;;;;;;5.63;67.60;99562.25;2017112;88;33139;-67
2022/02/20 08:44:45;;;;;;;3.95;2.35;;;;;;;5.65;67.59;99555.53;2020005;88;29330;-64
2022/02/20 08:47:55;;;;;;;2.35;1.60;;;;;;;5.68;67.70;99558.95;2016775;88;27939;-64
2022/02/20 08:51:01;;;;;;;1.87;1.40;;;;;;;5.74;67.82;99562.66;2016930;88;28510;-69
2022/02/20 08:54:07;;;;;;;2.25;1.45;;;;;;;5.85;67.78;99571.52;2019890;88;31092;-65
2022/02/20 08:57:17;;;;;;;2.05;1.10;;;;;;;5.90;67.88;99573.53;2016622;87;30048;-65
2022/02/20 09:00:22;;;;;;;2.17;1.50;;;;;;;5.98;67.99;99578.52;2017073;88;29336;-66
2022/02/20 09:03:29;;;;;;;2.12;1.15;;;;;;;6.02;68.07;99584.59;2017264;88;27812;-66
2022/02/20 09:06:36;;;;;;;3.00;1.40;;;;;;;6.02;68.17;99587.26;2017033;88;28653;-65
2022/02/20 09:09:46;;;;;;;2.67;1.50;;;;;;;6.05;68.35;99588.46;2016647;88;32345;-66
2022/02/20 09:12:55;;;;;;;4.05;2.50;;;;;;;6.08;68.43;99595.84;2016746;88;33053;-66
2022/02/20 09:15:59;;;;;;;3.12;1.70;;;;;;;6.06;68.38;99601.68;2017056;88;29338;-66
2022/02/20 09:19:06;;;;;;;3.00;1.70;;;;;;;6.03;68.36;99600.50;2017256;88;27944;-64
2022/02/20 09:22:10;;;;;;;5.20;2.10;;;;;;;6.07;68.49;99595.91;2016988;88;28891;-64
2022/02/20 09:25:22;;;;;;;3.33;2.13;;;;;;;6.06;68.45;99603.48;2015864;88;31033;-64
2022/02/20 09:28:30;;;;;;;7.65;2.75;;;;;;;6.07;68.63;99604.74;1964826;90;33028;-64
2022/02/20 09:31:38;;;;;;;4.95;2.92;;;;;;;6.06;68.68;99610.98;1964912;90;29336;-66
2022/02/20 09:35:02;;;;;;;16.95;10.10;;;;;;;6.04;68.66;99612.84;1964569;90;27856;-64
2022/02/20 09:38:05;;;;;;;7.28;2.90;;;;;;;6.03;68.95;99611.14;1960436;90;28665;-64
2022/02/20 09:41:09;;;;;;;13.05;8.43;;;;;;;6.04;68.90;99618.16;2017043;88;31060;-64
2022/02/20 09:44:11;;;;;;;5.87;3.13;;;;;;;6.06;69.04;99624.77;1967540;90;32967;-63
2022/02/20 09:47:15;;;;;;;8.23;4.17;;;;;;;6.10;69.21;99626.38;1960342;90;29341;-64
2022/02/20 09:50:17;;;;;;;7.78;3.87;;;;;;;6.13;69.09;99628.88;2017163;88;27732;-63
2022/02/20 09:53:19;;;;;;;7.00;4.05;;;;;;;6.19;69.43;99642.41;1968446;90;28667;-65
2022/02/20 09:56:21;;;;;;;4.78;3.08;;;;;;;6.25;69.35;99638.13;1967404;90;31042;-63
2022/02/20 09:59:28;;;;;;;4.03;2.17;;;;;;;6.39;69.60;99649.53;1957492;90;33620;-64
2022/02/20 10:02:44;;;;;;;4.33;2.30;;;;;;;6.58;69.54;99654.91;1960035;90;29321;-63
2022/02/20 10:05:55;;;;;;;4.40;2.77;;;;;;;6.69;69.31;99655.77;2014205;87;27744;-62
2022/02/20 10:08:59;;;;;;;5.97;2.50;;;;;;;6.81;69.28;99655.70;1964535;90;28664;-65
2022/02/20 10:12:01;;;;;;;8.90;3.08;;;;;;;6.95;69.48;99654.61;1967198;90;31113;-63
2022/02/20 10:15:04;;;;;;;6.47;2.77;;;;;;;7.21;69.56;99646.36;1960195;90;33033;-66
2022/02/20 10:18:23;;;;;;;9.43;3.20;;;;;;;7.49;69.62;99652.60;2020130;87;29343;-65
2022/02/20 10:21:28;;;;;;;6.33;2.30;;;;;;;7.67;69.07;99648.18;1967622;90;27840;-65
2022/02/20 10:24:31;;;;;;;5.78;2.45;;;;;;;7.69;68.27;99643.64;1967509;90;28672;-69
2022/02/20 10:27:36;;;;;;;3.95;2.37;;;;;;;7.65;68.14;99651.87;1967263;90;31048;-64
2022/02/20 10:30:42;;;;;;;5.15;2.27;;;;;;;7.67;68.22;99652.17;1967276;90;33044;-65
2022/02/20 10:33:57;;;;;;;8.28;2.77;;;;;;;7.68;68.00;99651.73;1956892;90;29406;-68
2022/02/20 10:37:06;;;;;;;6.50;2.05;;;;;;;7.67;67.86;99653.52;2006156;87;27949;-63
2022/02/20 10:40:31;;;;;;;4.22;2.05;;;;;;;7.66;67.92;99663.78;2019624;88;28714;-66
2022/02/20 10:43:41;;;;;;;13.30;7.17;;;;;;;7.69;67.93;99665.45;2019648;88;31070;-66
2022/02/20 10:46:43;;;;;;;8.13;3.52;;;;;;;7.73;67.77;99665.68;2019585;88;32974;-64
2022/02/20 10:49:46;;;;;;;6.10;2.75;;;;;;;7.82;67.88;99655.92;2019594;88;29350;-65
2022/02/20 10:53:08;;;;;;;5.87;2.50;;;;;;;7.86;67.45;99655.29;2019652;88;27633;-66
2022/02/20 10:56:11;;;;;;;4.72;2.72;;;;;;;7.86;67.07;99654.80;2019210;88;28730;-66
2022/02/20 10:59:14;;;;;;;5.25;2.52;;;;;;;7.91;67.28;99648.78;2019529;88;31061;-64
2022/02/20 11:02:18;;;;;;;22.62;12.07;;;;;;;8.01;66.91;99655.87;2019477;87;33627;-66
2022/02/20 11:05:20;;;;;;;13.10;9.23;;;;;;;8.13;66.91;99653.52;2019165;88;29368;-65
2022/02/20 11:08:26;;;;;;;9.50;7.90;;;;;;;8.26;67.03;99659.11;2019459;88;27925;-66
2022/02/20 11:11:47;;;;;;;7.95;3.55;;;;;;;8.39;66.94;99648.69;2019631;88;28631;-63
2022/02/20 11:14:48;;;;;;;6.53;3.37;;;;;;;8.49;66.41;99641.50;2018219;88;31265;-64
2022/02/20 11:17:52;;;;;;;5.95;2.50;;;;;;;8.59;66.12;99643.67;2020342;87;32863;-63
2022/02/20 11:20:55;;;;;;;16.80;9.65;;;;;;;8.76;66.11;99642.32;2019616;88;29340;-65
2022/02/20 11:24:00;;;;;;;5.05;2.72;;;;;;;8.94;65.74;99647.14;1999225;88;27684;-66
2022/02/20 11:27:05;;;;;;;6.30;2.00;;;;;;;9.04;65.01;99635.48;2017156;88;28659;-64
2022/02/20 11:30:09;;;;;;;3.47;2.27;;;;;;;9.06;64.47;99630.08;1967307;90;32110;-66
2022/02/20 11:33:12;;;;;;;6.30;2.08;;;;;;;9.22;64.58;99634.98;1967261;90;32960;-65
2022/02/20 11:36:15;;;;;;;3.00;1.95;;;;;;;9.48;64.47;99632.66;1959988;90;29477;-65
2022/02/20 11:39:17;;;;;;;7.92;2.87;;;;;;;9.79;64.09;99628.24;2017064;88;27627;-64
2022/02/20 11:42:22;;;;;;;2.55;1.40;;;;;;;10.00;63.57;99619.48;2000743;88;28711;-64
2022/02/20 11:45:37;;;;;;;4.45;1.45;;;;;;;10.16;62.50;99621.25;1946136;90;31081;-66
2022/02/20 11:49:16;;;;;;;4.60;1.70;;;;;;;10.30;61.74;99611.92;1964230;90;29971;-65
2022/02/20 11:52:21;;;;;;;3.70;1.60;;;;;;;10.40;61.51;99628.33;1997564;88;27958;-64
2022/02/20 11:55:31;;;;;;;4.50;2.10;;;;;;;10.46;60.95;99624.42;1945617;90;27922;-65
2022/02/20 11:58:44;;;;;;;3.33;1.57;;;;;;;10.46;60.42;99622.59;1964615;90;27845;-65
2022/02/20 12:02:15;;;;;;;5.75;3.62;;;;;;;10.45;58.68;99613.32;1998101;88;31087;-64
2022/02/20 12:05:25;;;;;;;7.65;3.10;;;;;;;10.43;59.45;99624.59;1963520;90;33056;-68
2022/02/20 12:08:38;;;;;;;5.20;2.42;;;;;;;10.41;58.82;99621.14;1965207;90;29518;-66
2022/02/20 12:11:44;;;;;;;4.70;1.40;;;;;;;10.41;59.03;99622.02;2000443;88;27984;-67
2022/02/20 12:14:46;;;;;;;9.38;3.05;;;;;;;10.42;58.45;99621.08;1967091;90;28803;-66
2022/02/20 12:18:15;;;;;;;5.62;2.15;;;;;;;10.51;58.88;99624.98;1968491;88;32532;-65
2022/02/20 12:21:19;;;;;;;3.12;1.60;;;;;;;10.54;57.59;99626.14;1966832;90;33190;-66
2022/02/20 12:24:29;;;;;;;5.77;2.27;;;;;;;10.51;56.70;99616.95;1967083;90;29417;-66
2022/02/20 12:27:41;;;;;;;7.80;2.72;;;;;;;10.44;57.24;99616.45;1949626;90;27876;-64
2022/02/20 12:30:45;;;;;;;9.75;4.40;;;;;;;10.44;56.99;99608.92;1948032;91;28707;-65
2022/02/20 12:33:49;;;;;;;2.98;1.42;;;;;;;10.38;56.53;99605.23;1947778;91;31340;-64
2022/02/20 12:36:51;;;;;;;5.55;2.60;;;;;;;10.35;56.39;99619.67;1950877;90;33047;-66
2022/02/20 12:40:24;;;;;;;4.15;2.52;;;;;;;10.31;55.71;99616.78;1948182;91;29352;-64
2022/02/20 12:43:28;;;;;;;6.30;3.55;;;;;;;10.31;56.09;99613.64;1948073;91;27753;-64
2022/02/20 12:46:33;;;;;;;2.92;1.50;;;;;;;10.34;55.50;99607.23;1948412;91;28706;-65
2022/02/20 12:49:41;;;;;;;4.33;1.87;;;;;;;10.40;55.58;99602.89;1971411;89;31053;-66
2022/02/20 12:52:43;;;;;;;4.37;1.30;;;;;;;10.49;55.38;99605.00;1948204;91;32967;-65
2022/02/20 12:55:46;;;;;;;4.58;2.10;;;;;;;10.56;55.32;99589.42;1948125;90;29506;-64
2022/02/20 12:58:51;;;;;;;3.27;1.47;;;;;;;10.68;54.65;99590.48;1948253;91;27715;-64
2022/02/20 13:02:04;;;;;;;3.72;1.92;;;;;;;10.73;54.67;99603.13;1948290;91;28667;-64
2022/02/20 13:05:16;;;;;;;4.00;1.87;;;;;;;10.75;54.42;99605.24;1948213;91;31046;-67
2022/02/20 13:08:29;;;;;;;3.25;1.65;;;;;;;10.79;54.09;99603.23;1980742;89;33017;-64
2022/02/20 13:11:31;;;;;;;3.62;1.40;;;;;;;10.83;54.12;99602.55;1950969;91;29345;-67
2022/02/20 13:14:35;;;;;;;4.12;1.22;;;;;;;10.85;53.88;99594.78;1928483;92;27559;-64
2022/02/20 13:17:52;;;;;;;3.35;1.87;;;;;;;10.88;53.88;99589.73;1963163;90;28757;-65
2022/02/20 13:21:15;;;;;;;4.28;1.95;;;;;;;10.87;53.53;99578.14;1960644;90;31862;-64
2022/02/20 13:24:14;;;;;;;19.12;5.87;;;;;;;10.86;53.21;99582.27;1962538;90;33237;-64
2022/02/20 13:27:17;;;;;;;14.47;5.33;;;;;;;10.83;52.88;99576.63;1965130;89;29294;-64
2022/02/20 13:30:32;;;;;;;10.72;4.45;;;;;;;10.83;53.54;99565.91;1964353;90;27912;-63
2022/02/20 13:33:43;;;;;;;5.40;1.87;;;;;;;10.83;53.58;99563.23;1951530;91;28656;-64
2022/02/20 13:36:47;;;;;;;3.62;1.50;;;;;;;10.77;53.09;99560.44;1951654;90;31042;-64
2022/02/20 13:39:53;;;;;;;;;;;;;;;10.77;53.34;99550.21;1951377;90;32983;-65
2022/02/20 13:43:07;;;;;;;4.62;2.20;;;;;;;10.78;53.26;99540.72;1931599;91;29392;-65
2022/02/20 13:46:13;;;;;;;1.60;1.40;;;;;;;10.77;53.32;99534.14;1931766;91;27916;-64
2022/02/20 13:49:29;;;;;;;2.33;1.55;;;;;;;10.81;52.96;99528.97;1931498;91;28775;-63
2022/02/20 13:52:39;;;;;;;4.33;1.75;;;;;;;10.84;53.12;99525.23;1931861;91;31065;-64
2022/02/20 13:55:40;;;;;;;2.72;1.37;;;;;;;10.90;53.36;99520.83;1981717;89;33121;-65
2022/02/20 13:58:51;;;;;;;5.22;1.47;;;;;;;10.93;53.12;99510.77;1949291;90;34614;-64
2022/02/20 14:02:15;;;;;;;3.83;1.90;;;;;;;10.93;53.17;99500.52;1936825;91;27971;-64
2022/02/20 14:05:25;;;;;;;4.53;1.80;;;;;;;10.95;53.08;99503.95;1937097;91;29211;-65
2022/02/20 14:08:27;;;;;;;6.62;2.22;;;;;;;11.01;53.27;99500.89;1920515;91;31053;-68
2022/02/20 14:11:32;;;;;;;4.33;1.80;;;;;;;11.01;53.38;99492.85;1940131;91;32958;-63
2022/02/20 14:14:34;;;;;;;;;;;;;;;11.02;53.22;99485.66;1942620;91;29366;-67
2022/02/20 14:18:10;;;;;;;2.67;1.60;;;;;;;10.95;52.94;99487.88;1953062;91;27685;-65
2022/02/20 14:21:29;;;;;;;5.12;1.80;;;;;;;10.87;53.08;99481.67;1951737;90;28677;-67
2022/02/20 14:24:27;;;;;;;4.37;1.75;;;;;;;10.76;53.08;99471.64;1951682;89;31298;-66
2022/02/20 14:27:37;;;;;;;9.55;1.92;;;;;;;10.73;53.08;99466.50;1961234;90;32972;-63
2022/02/20 14:30:43;;;;;;;5.75;2.02;;;;;;;10.72;53.05;99459.88;1959704;90;29425;-64
2022/02/20 14:33:50;;;;;;;3.72;2.35;;;;;;;10.72;53.54;99456.74;2019473;88;27929;-64
2022/02/20 14:37:08;;;;;;;6.70;2.15;;;;;;;10.76;53.23;99457.40;2019429;88;28891;-64
2022/02/20 14:40:12;;;;;;;7.40;2.85;;;;;;;10.76;53.42;99444.84;2019498;88;31070;-64
2022/02/20 14:43:14;;;;;;;9.00;4.58;;;;;;;10.79;53.62;99434.44;2019713;88;32994;-65
2022/02/20 14:46:17;;;;;;;5.75;3.42;;;;;;;10.81;53.42;99425.82;2019739;88;29290;-63